Time;durP1;ratioP1;P1;durP2;ratioP2;P2;SDS_P1;SDS_P2;PMS_P1;PMS_P2;Temp;Humidity;BMP_temperature;BMP_pressure;BME280_temperature;BME280_humidity;BME280_pressure;Samples;Min_cycle;Max_cycle;Signal;HPM_P1;HPM_P2
2023/05/22 00:00:07;;;;;;;14.27;12.97;;;;;;;15.54;100.00;99243.59;5055623;28;20587;-78
2023/05/22 00:02:41;;;;;;;13.87;12.67;;;;;;;15.43;100.00;99242.69;5073923;28;20699;-79
2023/05/22 00:05:10;;;;;;;14.03;12.93;;;;;;;15.35;100.00;99245.88;5073361;28;20524;-80
2023/05/22 00:07:37;;;;;;;14.87;13.57;;;;;;;15.27;100.00;99243.63;5074295;28;20189;-79
2023/05/22 00:10:05;;;;;;;13.47;12.27;;;;;;;15.18;100.00;99245.19;5066900;28;20185;-79
2023/05/22 00:12:32;;;;;;;14.67;13.23;;;;;;;15.11;100.00;99236.50;5055720;28;20279;-81
2023/05/22 00:14:59;;;;;;;14.20;12.83;;;;;;;15.09;100.00;99244.03;5059136;28;20248;-79
2023/05/22 00:17:26;;;;;;;14.30;13.03;;;;;;;15.05;100.00;99245.63;5065843;28;20209;-81
2023/05/22 00:19:54;;;;;;;14.20;12.90;;;;;;;15.00;100.00;99235.59;5074436;28;20212;-80
2023/05/22 00:22:20;;;;;;;14.33;13.07;;;;;;;14.95;100.00;99228.28;5073275;28;20189;-80
2023/05/22 00:24:47;;;;;;;14.33;12.97;;;;;;;14.97;100.00;99225.34;5071000;28;20181;-79
2023/05/22 00:27:13;;;;;;;14.37;13.03;;;;;;;14.96;100.00;99231.81;5068203;28;20224;-79
2023/05/22 00:29:40;;;;;;;14.63;13.43;;;;;;;14.92;100.00;99223.41;5051153;28;20233;-79
2023/05/22 00:32:07;;;;;;;14.57;13.37;;;;;;;14.92;100.00;99223.41;5065021;28;20198;-79
2023/05/22 00:34:33;;;;;;;13.90;12.80;;;;;;;14.87;100.00;99223.38;5056701;28;20252;-80
2023/05/22 00:37:00;;;;;;;13.83;12.70;;;;;;;14.89;100.00;99232.00;5054188;28;20190;-79
2023/05/22 00:39:27;;;;;;;14.50;13.13;;;;;;;14.83;100.00;99226.84;5035982;28;20258;-80
2023/05/22 00:41:53;;;;;;;14.10;12.80;;;;;;;14.81;100.00;99227.09;5059525;28;20202;-79
2023/05/22 00:44:20;;;;;;;14.97;13.57;;;;;;;14.71;100.00;99220.78;5062734;28;20193;-80
2023/05/22 00:46:47;;;;;;;13.80;12.60;;;;;;;14.67;100.00;99219.69;5049758;28;20604;-79
2023/05/22 00:49:14;;;;;;;14.13;12.83;;;;;;;14.64;100.00;99221.00;5055864;28;20198;-79
2023/05/22 00:51:40;;;;;;;15.23;13.83;;;;;;;14.59;100.00;99225.53;5040395;28;20248;-79
2023/05/22 00:54:07;;;;;;;14.57;13.17;;;;;;;14.53;100.00;99221.97;5043109;28;20705;-80
2023/05/22 00:56:34;;;;;;;14.20;13.00;;;;;;;14.50;100.00;99217.91;5040949;28;20566;-79
2023/05/22 00:59:01;;;;;;;14.63;13.47;;;;;;;14.45;100.00;99225.94;5047083;28;20277;-80
2023/05/22 01:01:32;;;;;;;14.73;13.37;;;;;;;14.41;100.00;99208.66;5074962;28;20233;-79
2023/05/22 01:04:00;;;;;;;14.87;13.57;;;;;;;14.36;100.00;99218.56;5062957;28;20656;-80
2023/05/22 01:06:30;;;;;;;15.20;13.90;;;;;;;14.31;100.00;99211.22;5054088;28;20276;-80
2023/05/22 01:08:57;;;;;;;14.83;13.63;;;;;;;14.27;100.00;99218.19;5054294;28;20198;-80
2023/05/22 01:11:30;;;;;;;14.70;13.50;;;;;;;14.25;100.00;99217.63;5063008;28;20246;-80
2023/05/22 01:14:09;;;;;;;15.50;14.10;;;;;;;14.25;100.00;99222.19;5014842;28;20212;-79
2023/05/22 01:16:47;;;;;;;14.87;13.57;;;;;;;14.16;100.00;99218.31;5032484;28;20194;-80
2023/05/22 01:19:46;;;;;;;15.73;14.37;;;;;;;14.08;100.00;99223.09;5047452;28;20201;-80
2023/05/22 01:22:27;;;;;;;15.50;14.10;;;;;;;14.04;100.00;99227.34;5075808;28;20232;-80
2023/05/22 01:25:35;;;;;;;15.43;14.13;;;;;;;14.07;100.00;99224.16;5059394;28;20636;-80
2023/05/22 01:28:26;;;;;;;15.33;13.93;;;;;;;13.98;100.00;99225.66;5060496;28;20247;-80
2023/05/22 01:31:09;;;;;;;15.53;14.13;;;;;;;13.90;100.00;99231.50;5065020;28;20212;-80
2023/05/22 01:33:48;;;;;;;16.23;14.87;;;;;;;13.87;100.00;99223.91;5057144;28;20228;-80
2023/05/22 01:36:19;;;;;;;16.23;14.80;;;;;;;13.80;100.00;99234.06;5057010;28;20189;-80
2023/05/22 01:38:46;;;;;;;17.60;15.90;;;;;;;13.76;100.00;99232.13;5044773;28;20218;-79
2023/05/22 01:41:13;;;;;;;16.03;14.63;;;;;;;13.74;100.00;99243.13;5049517;28;20296;-80
2023/05/22 01:43:40;;;;;;;15.93;14.63;;;;;;;13.68;100.00;99234.16;5061028;28;20648;-80
2023/05/22 01:46:07;;;;;;;16.80;15.40;;;;;;;13.69;100.00;99234.97;5052952;28;20186;-79
2023/05/22 01:48:34;;;;;;;16.20;14.83;;;;;;;13.62;100.00;99237.84;5041417;28;20290;-80
2023/05/22 01:51:07;;;;;;;17.10;15.60;;;;;;;13.49;100.00;99240.06;5039087;28;20549;-80
2023/05/22 01:53:42;;;;;;;17.20;15.70;;;;;;;13.53;100.00;99236.63;5055269;28;20196;-80
2023/05/22 01:56:11;;;;;;;16.50;15.00;;;;;;;13.50;100.00;99233.63;5057795;28;20193;-80
2023/05/22 01:58:44;;;;;;;16.90;15.40;;;;;;;13.46;100.00;99233.31;5037813;28;20247;-80
2023/05/22 02:01:13;;;;;;;17.67;15.90;;;;;;;13.41;100.00;99229.75;5053531;28;20268;-80
2023/05/22 02:03:40;;;;;;;16.60;15.10;;;;;;;13.35;100.00;99236.91;5037416;28;20648;-80
2023/05/22 02:06:09;;;;;;;17.23;15.60;;;;;;;13.31;100.00;99230.41;5053777;28;20275;-80
2023/05/22 02:08:37;;;;;;;18.27;16.47;;;;;;;13.32;100.00;99226.66;5037413;28;20204;-80
2023/05/22 02:11:05;;;;;;;18.27;16.47;;;;;;;13.23;100.00;99218.19;5037491;28;20212;-80
2023/05/22 02:13:32;;;;;;;18.67;16.97;;;;;;;13.20;100.00;99220.56;5037375;28;20199;-79
2023/05/22 02:15:59;;;;;;;17.40;15.90;;;;;;;13.15;100.00;99223.19;5037094;28;20193;-79
2023/05/22 02:18:29;;;;;;;18.47;16.87;;;;;;;13.16;100.00;99224.78;5037568;28;20204;-80
2023/05/22 02:20:57;;;;;;;17.17;15.67;;;;;;;13.11;100.00;99214.78;5053469;28;20222;-80
2023/05/22 02:23:24;;;;;;;17.67;16.07;;;;;;;13.09;100.00;99224.13;5054072;28;20186;-80
2023/05/22 02:25:50;;;;;;;17.73;16.10;;;;;;;13.05;100.00;99220.31;5037517;28;20215;-80
2023/05/22 02:28:17;;;;;;;18.67;17.07;;;;;;;12.99;100.00;99222.09;5063333;28;20200;-80
2023/05/22 02:30:45;;;;;;;17.63;16.03;;;;;;;13.04;100.00;99221.34;5053710;28;20204;-80
2023/05/22 02:33:16;;;;;;;16.60;15.20;;;;;;;12.98;100.00;99217.75;5054805;28;20186;-80
2023/05/22 02:35:44;;;;;;;17.33;15.83;;;;;;;12.86;100.00;99226.97;5066299;28;20226;-80
2023/05/22 02:38:11;;;;;;;16.40;14.97;;;;;;;12.84;100.00;99219.16;5073815;28;20192;-80
2023/05/22 02:40:38;;;;;;;17.13;15.60;;;;;;;12.83;100.00;99220.19;5062657;28;20209;-79
2023/05/22 02:43:06;;;;;;;17.10;15.60;;;;;;;12.78;100.00;99220.16;5052887;28;20614;-80
2023/05/22 02:45:32;;;;;;;17.27;15.77;;;;;;;12.74;100.00;99219.78;5062838;28;20221;-80
2023/05/22 02:48:02;;;;;;;15.57;14.17;;;;;;;12.75;100.00;99218.75;5069131;28;20221;-80
2023/05/22 02:50:30;;;;;;;16.47;14.97;;;;;;;12.67;100.00;99223.72;5069935;28;20294;-80
2023/05/22 02:52:57;;;;;;;16.93;15.40;;;;;;;12.60;100.00;99220.34;5061323;28;20650;-80
2023/05/22 02:55:24;;;;;;;16.93;15.53;;;;;;;12.61;100.00;99220.13;5051128;28;20192;-80
2023/05/22 02:57:51;;;;;;;17.73;16.07;;;;;;;12.57;100.00;99207.41;5067582;28;20194;-80
2023/05/22 03:00:18;;;;;;;17.83;16.13;;;;;;;12.54;100.00;99214.09;5047965;28;20243;-79
2023/05/22 03:02:45;;;;;;;17.90;16.40;;;;;;;12.56;100.00;99211.16;5067906;28;20219;-80
2023/05/22 03:05:16;;;;;;;17.53;15.93;;;;;;;12.56;100.00;99213.81;5068084;28;20192;-80
2023/05/22 03:07:43;;;;;;;17.87;16.30;;;;;;;12.56;100.00;99222.72;5067424;28;20184;-79
2023/05/22 03:10:14;;;;;;;17.47;15.97;;;;;;;12.52;100.00;99221.56;5058068;28;20205;-80
2023/05/22 03:12:40;;;;;;;17.60;16.10;;;;;;;12.47;100.00;99217.97;5036427;28;20593;-80
2023/05/22 03:15:08;;;;;;;16.97;15.57;;;;;;;12.51;100.00;99228.00;5060318;28;20202;-80
2023/05/22 03:17:36;;;;;;;16.97;15.47;;;;;;;12.55;100.00;99218.38;5061468;28;20242;-80
2023/05/22 03:20:04;;;;;;;17.77;16.00;;;;;;;12.61;100.00;99221.97;5068772;28;20227;-80
2023/05/22 03:22:30;;;;;;;17.83;16.23;;;;;;;12.67;100.00;99234.47;5051098;28;20685;-80
2023/05/22 03:24:57;;;;;;;17.37;15.97;;;;;;;12.66;100.00;99230.13;5053815;28;20191;-80
2023/05/22 03:27:24;;;;;;;15.93;14.50;;;;;;;12.63;100.00;99230.63;5016872;28;20200;-80
2023/05/22 03:29:51;;;;;;;16.33;14.83;;;;;;;12.71;100.00;99238.28;5072803;28;20269;-79
2023/05/22 03:32:18;;;;;;;17.37;15.63;;;;;;;12.73;100.00;99234.31;5056223;28;20298;-80
2023/05/22 03:34:45;;;;;;;16.43;15.00;;;;;;;12.76;100.00;99233.00;5074794;28;20222;-79
2023/05/22 03:37:12;;;;;;;15.87;14.47;;;;;;;12.85;100.00;99234.22;5075575;28;20192;-80
2023/05/22 03:39:38;;;;;;;17.40;15.80;;;;;;;12.95;100.00;99226.34;5065902;28;20234;-79
2023/05/22 03:42:16;;;;;;;17.17;15.67;;;;;;;13.03;100.00;99225.09;5063416;28;20218;-80
2023/05/22 03:44:43;;;;;;;17.27;15.77;;;;;;;13.15;100.00;99217.81;5076423;28;20230;-80
2023/05/22 03:47:10;;;;;;;17.20;15.70;;;;;;;13.10;100.00;99223.06;5064576;28;20211;-79
2023/05/22 03:49:37;;;;;;;17.03;15.43;;;;;;;13.19;100.00;99230.53;5061488;28;20184;-80
2023/05/22 03:52:04;;;;;;;17.90;16.30;;;;;;;13.26;100.00;99232.19;5052869;28;20207;-79
2023/05/22 03:54:30;;;;;;;16.90;15.50;;;;;;;13.41;100.00;99233.25;5069688;28;20207;-80
2023/05/22 03:56:57;;;;;;;16.60;15.20;;;;;;;13.73;100.00;99228.03;5076217;28;20245;-80
2023/05/22 03:59:24;;;;;;;17.07;15.57;;;;;;;14.21;100.00;99229.16;5067339;28;20250;-80
2023/05/22 04:01:51;;;;;;;17.43;15.83;;;;;;;14.90;100.00;99238.22;5051001;28;20242;-80
2023/05/22 04:04:17;;;;;;;16.90;15.50;;;;;;;15.72;100.00;99222.31;5058850;28;20196;-80
2023/05/22 04:06:44;;;;;;;15.60;14.10;;;;;;;16.22;100.00;99239.84;5059826;28;20540;-79
2023/05/22 04:09:11;;;;;;;14.77;13.33;;;;;;;16.13;100.00;99238.72;5063506;28;20178;-79
2023/05/22 04:11:38;;;;;;;14.87;13.57;;;;;;;15.84;100.00;99225.66;5059085;28;20615;-80
2023/05/22 04:14:05;;;;;;;15.10;13.87;;;;;;;15.57;100.00;99233.06;5061554;28;20198;-79
2023/05/22 04:16:32;;;;;;;15.23;13.97;;;;;;;15.32;100.00;99235.56;5074398;28;20192;-80
2023/05/22 04:19:03;;;;;;;15.67;14.37;;;;;;;15.26;100.00;99229.31;5068908;28;20238;-79
2023/05/22 04:21:33;;;;;;;15.70;14.33;;;;;;;15.20;100.00;99238.47;5067820;28;20220;-80
2023/05/22 04:24:05;;;;;;;15.70;14.23;;;;;;;15.10;100.00;99230.28;5056062;28;20194;-80
2023/05/22 04:26:33;;;;;;;16.50;15.00;;;;;;;14.89;100.00;99223.09;5071396;28;20212;-80
2023/05/22 04:29:00;;;;;;;15.27;14.00;;;;;;;14.86;100.00;99218.22;5069855;28;20203;-79
2023/05/22 04:31:27;;;;;;;15.80;14.40;;;;;;;15.00;100.00;99224.81;5075634;28;20188;-80
2023/05/22 04:33:54;;;;;;;15.57;14.17;;;;;;;15.20;100.00;99224.16;5075808;28;20200;-79
2023/05/22 04:36:24;;;;;;;15.00;13.70;;;;;;;15.35;100.00;99227.75;5076171;28;20185;-80
2023/05/22 04:38:52;;;;;;;15.00;13.80;;;;;;;15.56;100.00;99231.44;5076189;28;20220;-80
2023/05/22 04:41:21;;;;;;;14.90;13.70;;;;;;;15.73;100.00;99233.94;5057929;28;20223;-79
2023/05/22 04:43:51;;;;;;;14.43;13.13;;;;;;;15.89;100.00;99238.34;5076326;28;20180;-79
2023/05/22 04:46:18;;;;;;;14.37;13.17;;;;;;;15.99;100.00;99243.81;5075254;28;20659;-80
2023/05/22 04:48:45;;;;;;;14.23;12.97;;;;;;;16.14;100.00;99238.44;5075825;28;20185;-80
2023/05/22 04:51:14;;;;;;;13.53;12.43;;;;;;;16.26;100.00;99240.94;5074907;28;20209;-79
2023/05/22 04:53:41;;;;;;;13.93;12.70;;;;;;;16.39;100.00;99231.50;5057857;28;20189;-80
2023/05/22 04:56:08;;;;;;;14.13;12.73;;;;;;;16.51;100.00;99235.59;5074177;28;20574;-80
2023/05/22 04:58:36;;;;;;;13.47;12.37;;;;;;;16.66;100.00;99224.81;5057946;28;20553;-79
2023/05/22 05:01:04;;;;;;;13.93;12.80;;;;;;;16.87;100.00;99219.44;5073684;28;20333;-80
2023/05/22 05:03:31;;;;;;;13.87;12.47;;;;;;;16.95;100.00;99214.28;5073731;28;20197;-80
2023/05/22 05:05:59;;;;;;;13.17;12.07;;;;;;;17.03;100.00;99205.63;5075026;28;20189;-79
2023/05/22 05:08:26;;;;;;;13.20;12.00;;;;;;;17.03;100.00;99219.16;5074359;28;20203;-80
2023/05/22 05:10:52;;;;;;;13.57;12.40;;;;;;;17.07;100.00;99220.25;5074397;28;20192;-80
2023/05/22 05:13:19;;;;;;;13.60;12.40;;;;;;;17.11;100.00;99215.09;5074335;28;20185;-79
2023/05/22 05:15:46;;;;;;;13.40;12.30;;;;;;;17.14;100.00;99228.06;5074330;28;20288;-79
2023/05/22 05:18:13;;;;;;;13.63;12.40;;;;;;;17.28;100.00;99239.16;5074423;28;20197;-81
2023/05/22 05:20:40;;;;;;;13.30;12.10;;;;;;;17.48;100.00;99242.66;5075999;28;20177;-80
2023/05/22 05:23:09;;;;;;;13.10;12.03;;;;;;;17.68;100.00;99241.84;5072731;28;20213;-80
2023/05/22 05:25:37;;;;;;;13.00;11.80;;;;;;;17.92;100.00;99250.16;5056223;28;20193;-80
2023/05/22 05:28:10;;;;;;;12.97;11.87;;;;;;;18.17;100.00;99251.94;5072647;28;20544;-78
2023/05/22 05:30:39;;;;;;;13.43;12.23;;;;;;;18.33;100.00;99240.78;5072710;28;20185;-79
2023/05/22 05:33:11;;;;;;;13.07;11.90;;;;;;;18.52;100.00;99248.25;5073182;28;20190;-77
2023/05/22 05:35:56;;;;;;;12.80;11.67;;;;;;;18.73;100.00;99247.88;5049709;28;20217;-78
2023/05/22 05:38:24;;;;;;;13.70;12.40;;;;;;;18.94;100.00;99245.03;5036309;28;20198;-79
2023/05/22 05:40:51;;;;;;;13.67;11.90;;;;;;;19.06;100.00;99242.75;5054184;28;20193;-79
2023/05/22 05:43:19;;;;;;;13.73;12.53;;;;;;;19.07;100.00;99253.31;5054031;28;20213;-79
2023/05/22 05:45:47;;;;;;;13.37;12.27;;;;;;;19.24;100.00;99240.13;5048165;28;20204;-79
2023/05/22 05:48:15;;;;;;;14.53;13.23;;;;;;;19.42;100.00;99235.88;5061630;28;20256;-78
2023/05/22 05:50:44;;;;;;;14.30;12.80;;;;;;;19.54;100.00;99238.25;5035758;28;20209;-80
2023/05/22 05:53:11;;;;;;;13.80;12.57;;;;;;;19.62;100.00;99230.28;5060049;28;20223;-79
2023/05/22 05:55:41;;;;;;;14.40;12.60;;;;;;;19.74;100.00;99230.69;5056229;28;20319;-79
2023/05/22 05:58:08;;;;;;;14.10;12.83;;;;;;;19.81;100.00;99234.97;5049734;28;20253;-79
2023/05/22 06:00:41;;;;;;;13.90;12.73;;;;;;;19.89;100.00;99228.88;5040142;28;20723;-82
2023/05/22 06:03:09;;;;;;;13.33;12.23;;;;;;;19.94;100.00;99237.00;5028001;28;20240;-83
2023/05/22 06:05:48;;;;;;;12.97;11.80;;;;;;;20.04;100.00;99228.72;5037436;28;20210;-83
2023/05/22 06:08:24;;;;;;;14.20;12.90;;;;;;;20.14;100.00;99226.69;5034232;28;20243;-83
2023/05/22 06:10:51;;;;;;;15.00;13.63;;;;;;;19.62;100.00;99227.56;5042974;28;20197;-82
2023/05/22 06:13:34;;;;;;;13.50;12.20;;;;;;;20.10;100.00;99238.44;5036597;28;20214;-82
2023/05/22 06:16:01;;;;;;;14.03;12.83;;;;;;;20.33;100.00;99234.91;5038292;28;20208;-82
2023/05/22 06:18:33;;;;;;;13.50;12.37;;;;;;;20.35;100.00;99226.41;5045739;28;20667;-82
2023/05/22 06:20:59;;;;;;;13.60;12.40;;;;;;;20.59;100.00;99232.63;5042232;28;20188;-82
2023/05/22 06:23:26;;;;;;;13.20;12.10;;;;;;;20.71;100.00;99221.28;5062231;28;20709;-84
2023/05/22 06:25:54;;;;;;;12.67;11.50;;;;;;;20.88;100.00;99232.44;5065708;28;20217;-83
2023/05/22 06:28:22;;;;;;;12.93;11.87;;;;;;;21.02;100.00;99230.59;5043788;28;20197;-83
2023/05/22 06:30:48;;;;;;;13.97;12.60;;;;;;;21.16;100.00;99228.75;5065528;28;20208;-83
2023/05/22 06:33:18;;;;;;;13.83;12.53;;;;;;;21.30;100.00;99220.63;5065130;28;20206;-84
2023/05/22 06:35:44;;;;;;;13.67;12.57;;;;;;;21.09;100.00;99222.84;5057026;28;20218;-83
2023/05/22 06:38:11;;;;;;;12.63;11.43;;;;;;;21.35;100.00;99212.34;5050396;28;20209;-83
2023/05/22 06:40:40;;;;;;;13.07;11.77;;;;;;;21.49;100.00;99221.34;5044351;28;20217;-82
2023/05/22 06:43:12;;;;;;;12.23;11.17;;;;;;;21.73;100.00;99221.19;5029507;28;20681;-83
2023/05/22 06:45:50;;;;;;;13.53;12.33;;;;;;;21.90;100.00;99227.63;5027191;28;20239;-83
2023/05/22 06:48:22;;;;;;;13.47;12.37;;;;;;;22.01;100.00;99224.75;5064250;28;20288;-83
2023/05/22 06:50:58;;;;;;;13.83;12.57;;;;;;;22.12;100.00;99226.94;5032548;28;20216;-83
2023/05/22 06:53:25;;;;;;;12.60;11.50;;;;;;;22.15;100.00;99233.72;5048714;28;20202;-85
2023/05/22 06:55:51;;;;;;;13.57;12.23;;;;;;;22.22;100.00;99232.19;5061285;28;20188;-80
2023/05/22 06:58:28;;;;;;;12.53;11.33;;;;;;;22.37;100.00;99233.78;5068379;28;20237;-80
2023/05/22 07:00:55;;;;;;;12.70;11.63;;;;;;;22.37;100.00;99236.50;5064356;28;20251;-81
2023/05/22 07:03:30;;;;;;;12.03;11.00;;;;;;;22.52;100.00;99236.19;5050592;28;20228;-80
2023/05/22 07:06:17;;;;;;;12.00;10.90;;;;;;;22.63;100.00;99232.09;5050085;28;20205;-81
2023/05/22 07:08:44;;;;;;;11.75;10.65;;;;;;;22.80;100.00;99224.09;5040790;28;20200;-79
2023/05/22 07:11:11;;;;;;;12.00;11.00;;;;;;;22.93;100.00;99216.13;5038967;28;20194;-79
2023/05/22 07:13:38;;;;;;;11.52;10.63;;;;;;;23.08;100.00;99219.31;5042586;28;20746;-79
2023/05/22 07:16:05;;;;;;;11.43;10.40;;;;;;;23.17;100.00;99213.91;5050020;28;20569;-79
2023/05/22 07:18:33;;;;;;;11.07;10.07;;;;;;;23.32;100.00;99207.22;5039967;28;20202;-79
2023/05/22 07:21:00;;;;;;;10.90;9.95;;;;;;;23.38;100.00;99206.78;5050958;28;20185;-80
2023/05/22 07:23:27;;;;;;;11.13;10.23;;;;;;;23.39;100.00;99208.38;5050411;28;20225;-81
2023/05/22 07:25:54;;;;;;;10.50;9.48;;;;;;;23.45;100.00;99207.16;5028951;28;20201;-79
2023/05/22 07:28:24;;;;;;;10.98;10.02;;;;;;;23.64;100.00;99212.41;5038053;28;20202;-79
2023/05/22 07:30:59;;;;;;;10.63;9.63;;;;;;;23.72;100.00;99216.28;5042690;28;20201;-80
2023/05/22 07:33:26;;;;;;;10.02;9.13;;;;;;;23.87;100.00;99215.88;5038728;28;20202;-79
2023/05/22 07:35:54;;;;;;;9.98;9.07;;;;;;;23.99;100.00;99216.88;5036701;28;20233;-79
2023/05/22 07:38:21;;;;;;;9.63;8.82;;;;;;;24.12;100.00;99217.88;5045398;28;20198;-79
2023/05/22 07:40:55;;;;;;;9.98;9.07;;;;;;;24.20;100.00;99214.38;5042080;28;20254;-79
2023/05/22 07:43:23;;;;;;;9.82;9.00;;;;;;;24.25;100.00;99216.16;5048200;28;20220;-79
2023/05/22 07:45:50;;;;;;;10.50;9.50;;;;;;;24.35;100.00;99213.94;5044219;28;20205;-78
2023/05/22 07:48:21;;;;;;;9.95;9.15;;;;;;;24.46;100.00;99212.47;5040465;28;20212;-80
2023/05/22 07:50:48;;;;;;;9.73;8.93;;;;;;;24.61;100.00;99208.47;5047267;28;20201;-78
2023/05/22 07:53:15;;;;;;;9.82;8.95;;;;;;;24.56;100.00;99201.22;5042868;28;20297;-79
2023/05/22 07:55:43;;;;;;;8.52;7.68;;;;;;;24.73;100.00;99205.88;5047231;28;20695;-79
2023/05/22 07:58:10;;;;;;;9.13;8.43;;;;;;;24.84;100.00;99207.16;5040897;28;20182;-79
2023/05/22 08:00:40;;;;;;;8.95;8.15;;;;;;;24.91;100.00;99212.19;5040988;28;20383;-81
2023/05/22 08:03:07;;;;;;;7.80;7.00;;;;;;;25.15;99.98;99209.72;5045601;28;20206;-79
2023/05/22 08:05:34;;;;;;;8.07;7.38;;;;;;;25.24;98.64;99207.78;5059689;28;20652;-78
2023/05/22 08:08:01;;;;;;;9.77;8.98;;;;;;;25.31;99.32;99204.53;5072976;28;20580;-79
2023/05/22 08:10:28;;;;;;;9.27;8.38;;;;;;;25.40;99.66;99208.06;5066506;28;20720;-79
2023/05/22 08:13:12;;;;;;;8.50;7.70;;;;;;;25.37;95.88;99201.31;5072205;28;20223;-79
2023/05/22 08:15:39;;;;;;;9.95;7.80;;;;;;;25.44;97.23;99200.78;5072937;28;20618;-79
2023/05/22 08:18:05;;;;;;;8.68;7.82;;;;;;;25.50;96.08;99206.91;5072320;28;20187;-78
2023/05/22 08:20:32;;;;;;;9.05;8.23;;;;;;;25.58;96.69;99195.94;5070464;28;20717;-79
2023/05/22 08:22:59;;;;;;;9.15;8.45;;;;;;;25.55;95.65;99199.34;5058808;28;20760;-79
2023/05/22 08:25:26;;;;;;;9.55;8.55;;;;;;;25.49;96.29;99189.63;5052078;28;20281;-79
2023/05/22 08:27:53;;;;;;;9.38;8.50;;;;;;;25.71;96.73;99191.38;5055422;28;20219;-80
2023/05/22 08:30:19;;;;;;;9.60;8.27;;;;;;;25.79;96.00;99185.03;5053735;28;20224;-78
2023/05/22 08:32:46;;;;;;;9.15;8.00;;;;;;;25.88;97.37;99183.06;5050743;28;20757;-79
2023/05/22 08:35:13;;;;;;;10.25;9.35;;;;;;;25.95;94.61;99179.75;5056360;28;20303;-78
2023/05/22 08:37:40;;;;;;;9.50;8.43;;;;;;;25.92;94.32;99177.69;5058865;28;20201;-78
2023/05/22 08:40:11;;;;;;;9.57;8.88;;;;;;;25.96;94.60;99179.44;5056034;28;20700;-81
2023/05/22 08:42:38;;;;;;;9.40;8.60;;;;;;;26.14;93.82;99180.13;5051812;28;20211;-80
2023/05/22 08:45:05;;;;;;;9.50;8.70;;;;;;;26.27;94.67;99174.41;5063240;28;20276;-82
2023/05/22 08:47:36;;;;;;;9.98;8.98;;;;;;;26.38;93.94;99174.03;5054571;28;20223;-81
2023/05/22 08:50:03;;;;;;;9.38;8.48;;;;;;;26.42;95.38;99174.97;5061945;28;20200;-81
2023/05/22 08:52:37;;;;;;;9.48;8.68;;;;;;;26.52;95.87;99175.38;5063117;28;20205;-81
2023/05/22 08:55:05;;;;;;;9.45;8.65;;;;;;;26.46;94.20;99175.91;5054206;28;20200;-80
2023/05/22 08:57:32;;;;;;;10.07;9.05;;;;;;;26.41;92.88;99179.66;5057914;28;20657;-81
2023/05/22 08:59:59;;;;;;;9.38;8.52;;;;;;;26.48;92.24;99177.19;5059718;28;20185;-81
2023/05/22 09:02:27;;;;;;;9.73;8.82;;;;;;;26.52;91.33;99177.31;5063835;28;20286;-82
2023/05/22 09:04:54;;;;;;;7.72;7.07;;;;;;;26.63;90.13;99167.53;5066210;28;20552;-81
2023/05/22 09:07:20;;;;;;;7.45;6.85;;;;;;;26.62;89.93;99163.16;5060960;28;20209;-81
2023/05/22 09:09:48;;;;;;;6.97;6.45;;;;;;;26.64;89.99;99166.41;5062628;28;20192;-81
2023/05/22 09:12:15;;;;;;;6.80;6.22;;;;;;;26.71;89.70;99166.66;5056213;28;20217;-81
2023/05/22 09:14:43;;;;;;;6.95;6.20;;;;;;;26.87;88.50;99158.63;5063224;28;20225;-80
2023/05/22 09:17:13;;;;;;;7.40;5.60;;;;;;;26.76;85.83;99162.88;5058582;28;20240;-81
2023/05/22 09:19:46;;;;;;;6.13;5.30;;;;;;;26.76;86.39;99162.88;5058079;28;20615;-81
2023/05/22 09:22:13;;;;;;;5.47;4.90;;;;;;;26.85;82.10;99161.66;5067084;28;20188;-80
2023/05/22 09:24:41;;;;;;;6.18;5.28;;;;;;;27.05;81.54;99166.34;5070590;28;20194;-81
2023/05/22 09:27:09;;;;;;;5.55;5.00;;;;;;;27.28;80.92;99166.75;5067445;28;20204;-81
2023/05/22 09:29:48;;;;;;;6.22;5.68;;;;;;;27.34;80.28;99168.09;5061645;28;20217;-81
2023/05/22 09:32:16;;;;;;;5.47;4.97;;;;;;;27.45;77.59;99166.53;5063642;28;20201;-81
2023/05/22 09:34:43;;;;;;;5.55;5.05;;;;;;;27.44;75.97;99164.91;5051659;28;20245;-80
2023/05/22 09:37:13;;;;;;;5.57;4.80;;;;;;;27.54;75.94;99158.19;5046116;28;20188;-80
2023/05/22 09:39:42;;;;;;;5.85;4.70;;;;;;;27.46;74.08;99162.66;5054572;28;20243;-81
2023/05/22 09:42:11;;;;;;;4.88;4.47;;;;;;;27.50;71.33;99157.28;5067183;28;20190;-81
2023/05/22 09:44:38;;;;;;;5.18;4.60;;;;;;;27.60;74.18;99156.84;5053485;28;20194;-82
2023/05/22 09:47:05;;;;;;;5.97;4.57;;;;;;;27.68;74.01;99158.66;5056112;28;20233;-80
2023/05/22 09:49:39;;;;;;;5.25;4.75;;;;;;;27.80;74.67;99150.44;5043546;28;20675;-80
2023/05/22 09:52:07;;;;;;;5.93;5.00;;;;;;;27.83;73.99;99157.97;5021957;28;20323;-81
2023/05/22 09:54:34;;;;;;;6.40;4.72;;;;;;;27.99;72.58;99152.59;5035110;28;20649;-82
2023/05/22 09:57:03;;;;;;;6.15;4.47;;;;;;;28.13;73.67;99155.00;5023923;28;20244;-81
2023/05/22 09:59:32;;;;;;;5.18;4.78;;;;;;;28.09;73.05;99149.34;5045332;28;20219;-81
2023/05/22 10:02:00;;;;;;;5.13;4.72;;;;;;;28.29;73.05;99144.84;5059080;28;20236;-81
2023/05/22 10:04:29;;;;;;;5.30;4.78;;;;;;;28.31;73.12;99145.31;5043967;28;20210;-81
2023/05/22 10:06:56;;;;;;;5.20;4.57;;;;;;;28.43;72.68;99148.03;5045442;28;20683;-81
2023/05/22 10:09:25;;;;;;;6.45;5.32;;;;;;;28.55;71.31;99152.72;5040610;28;20272;-81
2023/05/22 10:11:52;;;;;;;5.35;4.15;;;;;;;28.56;70.28;99149.59;5049544;28;20193;-81
2023/05/22 10:14:19;;;;;;;5.18;4.70;;;;;;;28.58;70.02;99132.72;5043833;28;20723;-82
2023/05/22 10:16:46;;;;;;;5.82;4.70;;;;;;;28.72;69.35;99131.19;5052483;28;20609;-83
2023/05/22 10:19:13;;;;;;;5.38;4.88;;;;;;;28.77;70.34;99130.94;5049447;28;20194;-83
2023/05/22 10:21:40;;;;;;;5.20;4.55;;;;;;;28.63;70.98;99122.25;5025874;28;20333;-82
2023/05/22 10:24:07;;;;;;;5.25;4.75;;;;;;;28.81;70.85;99125.53;5033515;28;20206;-82
2023/05/22 10:26:34;;;;;;;6.18;5.00;;;;;;;28.93;69.57;99119.16;5017292;28;20719;-82
2023/05/22 10:29:10;;;;;;;6.15;4.53;;;;;;;28.79;70.81;99116.78;5046101;28;20189;-84
2023/05/22 10:32:23;;;;;;;7.78;4.97;;;;;;;28.91;68.23;99121.44;5031683;28;20301;-82
2023/05/22 10:35:07;;;;;;;8.77;5.00;;;;;;;28.82;68.55;99111.41;5035846;28;20232;-82
2023/05/22 10:38:01;;;;;;;5.97;5.05;;;;;;;28.67;69.86;99103.84;5051825;28;20189;-82
2023/05/22 10:40:32;;;;;;;6.45;4.63;;;;;;;28.71;68.47;99101.22;5052761;28;20185;-83
2023/05/22 10:43:00;;;;;;;6.57;4.90;;;;;;;28.92;69.89;99095.50;5049996;28;20207;-82
2023/05/22 10:45:27;;;;;;;5.55;4.97;;;;;;;28.97;67.73;99098.78;5060987;28;20188;-81
2023/05/22 10:48:22;;;;;;;5.43;4.57;;;;;;;28.98;67.15;99099.56;5063436;28;20656;-81
2023/05/22 10:50:52;;;;;;;6.93;5.03;;;;;;;28.80;65.84;99099.91;5057515;28;20214;-81
2023/05/22 10:53:31;;;;;;;5.97;4.75;;;;;;;28.94;66.78;99088.44;5060133;28;20717;-83
2023/05/22 10:56:01;;;;;;;4.93;4.53;;;;;;;28.96;66.14;99090.88;5058548;28;20656;-81
2023/05/22 10:58:29;;;;;;;5.57;5.03;;;;;;;28.91;65.58;99091.94;5057049;28;20182;-83
2023/05/22 11:01:14;;;;;;;5.43;4.80;;;;;;;29.05;67.19;99080.47;5069555;28;20225;-83
2023/05/22 11:03:54;;;;;;;5.57;5.07;;;;;;;29.17;64.97;99081.16;5069683;28;20205;-83
2023/05/22 11:06:44;;;;;;;5.38;4.90;;;;;;;29.33;66.51;99072.13;5059781;28;20622;-81
2023/05/22 11:09:28;;;;;;;5.25;4.75;;;;;;;29.36;63.62;99063.13;5064919;28;20190;-82
2023/05/22 11:12:16;;;;;;;5.97;4.90;;;;;;;29.46;62.42;99068.91;5062398;28;20656;-81
2023/05/22 11:14:55;;;;;;;5.32;4.78;;;;;;;29.46;60.87;99068.91;5066577;28;20197;-81
2023/05/22 11:17:29;;;;;;;4.90;4.50;;;;;;;29.62;60.41;99071.66;5065875;28;20189;-83
2023/05/22 11:20:27;;;;;;;5.53;5.03;;;;;;;29.73;59.41;99064.41;5069480;28;20189;-82
2023/05/22 11:22:59;;;;;;;5.43;4.80;;;;;;;29.83;57.50;99052.81;5048245;28;20656;-82
2023/05/22 11:25:26;;;;;;;5.70;5.10;;;;;;;29.96;54.83;99056.25;5063467;28;20562;-81
2023/05/22 11:27:54;;;;;;;5.78;5.22;;;;;;;29.89;53.02;99056.13;5052430;28;20259;-82